Time;durP1;ratioP1;P1;durP2;ratioP2;P2;SDS_P1;SDS_P2;PMS_P1;PMS_P2;Temp;Humidity;BMP_temperature;BMP_pressure;BME280_temperature;BME280_humidity;BME280_pressure;Samples;Min_cycle;Max_cycle;Signal;HPM_P1;HPM_P2
2021/07/27 00:01:09;;;;;;;10.00;6.93;;;18.30;99.90;;;;;;4960167;28;20660;-73
2021/07/27 00:03:34;;;;;;;7.50;6.33;;;18.40;99.90;;;;;;4969340;28;20264;-74
2021/07/27 00:06:00;;;;;;;10.57;6.50;;;18.40;99.90;;;;;;4969193;28;20352;-74
2021/07/27 00:08:25;;;;;;;9.00;6.80;;;18.50;99.90;;;;;;4969193;28;20209;-74
2021/07/27 00:10:53;;;;;;;10.87;6.27;;;18.60;99.90;;;;;;4968920;28;20177;-73
2021/07/27 00:13:19;;;;;;;9.07;6.20;;;18.50;99.90;;;;;;4969020;28;20552;-73
2021/07/27 00:15:44;;;;;;;9.10;6.43;;;18.50;99.90;;;;;;4968987;28;20672;-73
2021/07/27 00:18:10;;;;;;;7.73;6.30;;;18.50;99.90;;;;;;4953023;28;20586;-73
2021/07/27 00:20:35;;;;;;;8.63;6.63;;;18.50;99.90;;;;;;4954047;28;20713;-73
2021/07/27 00:23:01;;;;;;;8.40;6.10;;;18.50;99.90;;;;;;4969035;28;20181;-74
2021/07/27 00:25:26;;;;;;;9.17;6.43;;;18.60;99.90;;;;;;4968925;28;20206;-73
2021/07/27 00:27:52;;;;;;;9.13;6.27;;;18.50;99.90;;;;;;4968965;28;20237;-73
2021/07/27 00:30:17;;;;;;;9.43;6.80;;;18.60;99.90;;;;;;4968818;28;20224;-74
2021/07/27 00:32:43;;;;;;;9.30;6.60;;;18.50;99.90;;;;;;4968981;28;20174;-73
2021/07/27 00:35:10;;;;;;;9.73;6.83;;;18.40;99.90;;;;;;4952617;29;20204;-74
2021/07/27 00:37:38;;;;;;;8.43;6.20;;;18.40;99.90;;;;;;4968641;28;20173;-74
2021/07/27 00:40:04;;;;;;;12.37;7.27;;;18.40;99.90;;;;;;4968414;28;20493;-74
2021/07/27 00:42:31;;;;;;;9.30;6.73;;;18.40;99.90;;;;;;4968774;28;20564;-74
2021/07/27 00:44:57;;;;;;;7.90;6.63;;;18.40;99.90;;;;;;4953867;28;20678;-73
2021/07/27 00:47:23;;;;;;;9.80;7.00;;;18.40;99.90;;;;;;4952674;28;20178;-74
2021/07/27 00:49:48;;;;;;;9.73;7.20;;;18.40;99.90;;;;;;4968156;28;20197;-74
2021/07/27 00:52:14;;;;;;;10.53;7.57;;;18.50;99.90;;;;;;4969098;28;20185;-73
2021/07/27 00:54:39;;;;;;;11.63;8.50;;;18.50;99.90;;;;;;4968703;28;20178;-74
2021/07/27 00:57:05;;;;;;;10.33;7.60;;;18.40;99.90;;;;;;4968809;28;20170;-73
2021/07/27 00:59:30;;;;;;;10.67;8.03;;;18.50;99.90;;;;;;4968295;28;20178;-74
2021/07/27 01:01:56;;;;;;;12.53;8.23;;;18.50;99.90;;;;;;4969159;28;20582;-74
2021/07/27 01:04:22;;;;;;;13.13;8.50;;;18.50;99.90;;;;;;4968947;28;20217;-74
2021/07/27 01:06:47;;;;;;;12.30;8.60;;;18.50;99.90;;;;;;4968605;28;20209;-73
2021/07/27 01:09:13;;;;;;;11.77;8.33;;;18.40;99.90;;;;;;4968304;28;20181;-74
2021/07/27 01:11:42;;;;;;;10.90;8.23;;;18.40;99.90;;;;;;4968529;28;20229;-74
2021/07/27 01:14:08;;;;;;;12.10;8.50;;;18.40;99.90;;;;;;4952255;29;20178;-74
2021/07/27 01:16:35;;;;;;;12.43;8.40;;;18.40;99.90;;;;;;4968414;28;20704;-73
2021/07/27 01:38:11;;;;;;;12.10;8.60;;;18.20;99.90;;;;;;4953548;29;20216;-74
2021/07/27 01:43:19;;;;;;;12.87;9.30;;;18.20;99.90;;;;;;4966695;28;20224;-73
2021/07/27 01:45:45;;;;;;;13.00;9.40;;;18.30;99.90;;;;;;4967947;28;20693;-73
2021/07/27 01:48:10;;;;;;;13.33;9.03;;;18.30;99.90;;;;;;4968118;28;20236;-74
2021/07/27 01:50:36;;;;;;;12.47;9.73;;;18.20;99.90;;;;;;4967994;28;20182;-74
2021/07/27 01:53:04;;;;;;;13.67;9.17;;;18.20;99.90;;;;;;4968158;28;20182;-74
2021/07/27 01:55:34;;;;;;;13.23;9.70;;;18.30;99.90;;;;;;4968000;28;20752;-73
2021/07/27 01:57:59;;;;;;;13.97;9.40;;;18.30;99.90;;;;;;4967568;28;20317;-73
2021/07/27 02:00:25;;;;;;;14.23;9.33;;;18.20;99.90;;;;;;4968414;28;20280;-74
2021/07/27 02:02:50;;;;;;;15.00;9.50;;;18.30;99.90;;;;;;4971666;28;20181;-74
2021/07/27 02:05:16;;;;;;;13.70;9.30;;;18.30;99.90;;;;;;4956605;28;20344;-74
2021/07/27 02:07:57;;;;;;;13.13;9.33;;;18.10;99.90;;;;;;4971392;28;20233;-74
2021/07/27 02:10:23;;;;;;;12.63;9.37;;;18.10;99.90;;;;;;4971167;28;20234;-74
2021/07/27 02:13:33;;;;;;;16.03;9.70;;;18.20;99.90;;;;;;4971316;28;20228;-74
2021/07/27 02:15:41;;;;;;;12.90;9.63;;;18.10;99.90;;;;;;4967897;28;20688;-74
2021/07/27 02:18:06;;;;;;;12.60;9.73;;;18.20;99.90;;;;;;4970882;28;20236;-73
2021/07/27 02:20:32;;;;;;;14.53;9.93;;;18.10;99.90;;;;;;4971019;28;20276;-74
2021/07/27 02:22:58;;;;;;;14.67;10.70;;;18.00;99.90;;;;;;4971124;28;20185;-74
2021/07/27 02:25:23;;;;;;;15.80;11.83;;;18.00;99.90;;;;;;4970729;28;20268;-73
2021/07/27 02:27:49;;;;;;;18.93;11.50;;;18.10;99.90;;;;;;4971095;28;20174;-73
2021/07/27 02:30:15;;;;;;;16.10;11.60;;;18.20;99.90;;;;;;4970865;28;20182;-73
2021/07/27 02:32:40;;;;;;;15.73;11.87;;;18.10;99.90;;;;;;4971113;28;20579;-73
2021/07/27 02:35:07;;;;;;;14.77;11.80;;;18.10;99.90;;;;;;4970903;28;20197;-74
2021/07/27 02:37:32;;;;;;;16.77;13.00;;;18.00;99.90;;;;;;4970895;28;20213;-74
2021/07/27 02:39:58;;;;;;;17.90;12.23;;;18.00;99.90;;;;;;4970706;28;20228;-74
2021/07/27 02:42:24;;;;;;;22.80;14.03;;;18.00;99.90;;;;;;4970888;28;20182;-74
2021/07/27 02:44:49;;;;;;;18.07;12.80;;;18.00;99.90;;;;;;4970505;28;20210;-73
2021/07/27 02:47:15;;;;;;;17.37;13.97;;;17.90;99.90;;;;;;4970838;28;20547;-73
2021/07/27 02:49:41;;;;;;;18.73;13.03;;;18.00;99.90;;;;;;4970438;28;20212;-74
2021/07/27 02:52:06;;;;;;;20.70;13.50;;;17.90;99.90;;;;;;4970999;28;20169;-74
2021/07/27 02:54:38;;;;;;;21.03;14.23;;;17.90;99.90;;;;;;4955594;28;20178;-74
2021/07/27 02:57:04;;;;;;;18.93;14.77;;;18.00;99.90;;;;;;4969870;28;20177;-73
2021/07/27 02:59:29;;;;;;;22.00;14.57;;;17.90;99.90;;;;;;4985937;28;20601;-73
2021/07/27 03:01:55;;;;;;;21.67;15.57;;;17.80;99.90;;;;;;4973890;28;20188;-74
2021/07/27 03:04:20;;;;;;;23.13;15.97;;;17.90;99.90;;;;;;4957798;28;20211;-74
2021/07/27 03:06:47;;;;;;;21.07;15.17;;;17.90;99.90;;;;;;4957428;28;20224;-74
2021/07/27 03:09:16;;;;;;;25.53;17.40;;;17.80;99.90;;;;;;4973468;28;20181;-74
2021/07/27 03:11:42;;;;;;;23.60;17.17;;;17.70;99.90;;;;;;4973208;28;20181;-74
2021/07/27 03:14:08;;;;;;;27.07;18.27;;;17.70;99.90;;;;;;4973552;28;20181;-74
2021/07/27 03:16:33;;;;;;;32.43;20.33;;;17.80;99.90;;;;;;4957380;28;20201;-74
2021/07/27 03:18:59;;;;;;;29.53;20.50;;;17.80;99.90;;;;;;4957156;28;20180;-74
2021/07/27 03:21:26;;;;;;;28.10;18.90;;;17.80;99.90;;;;;;4957225;28;20185;-74
2021/07/27 03:23:52;;;;;;;24.33;18.30;;;17.80;99.90;;;;;;4973454;28;20236;-74
2021/07/27 03:26:18;;;;;;;26.33;18.40;;;17.70;99.90;;;;;;4973259;28;20216;-74
2021/07/27 03:28:45;;;;;;;27.90;18.10;;;17.70;99.90;;;;;;4957404;28;20189;-74
2021/07/27 03:31:10;;;;;;;23.90;16.90;;;17.70;99.90;;;;;;4989671;28;20177;-73
2021/07/27 03:33:36;;;;;;;24.20;16.93;;;17.70;99.90;;;;;;4957684;28;20191;-73
2021/07/27 03:36:01;;;;;;;28.67;17.30;;;17.70;99.90;;;;;;4973190;28;20205;-74
2021/07/27 03:38:27;;;;;;;24.33;17.13;;;17.80;99.90;;;;;;4974124;28;20181;-74
2021/07/27 03:41:01;;;;;;;24.23;17.03;;;17.80;99.90;;;;;;4972836;28;20181;-74
2021/07/27 03:43:26;;;;;;;22.97;16.60;;;17.80;99.90;;;;;;4972976;28;20181;-74
2021/07/27 03:45:52;;;;;;;24.77;16.77;;;17.80;99.90;;;;;;4970807;28;20347;-73
2021/07/27 03:48:17;;;;;;;26.40;17.60;;;17.80;99.90;;;;;;4972668;28;20307;-74
2021/07/27 03:50:43;;;;;;;25.70;17.43;;;17.80;99.90;;;;;;4967119;28;20727;-74
2021/07/27 03:53:20;;;;;;;27.27;17.17;;;17.70;99.90;;;;;;4954704;28;20702;-74
2021/07/27 03:55:46;;;;;;;25.43;17.37;;;17.70;99.90;;;;;;4958291;28;20204;-74
2021/07/27 03:58:11;;;;;;;25.13;17.37;;;17.70;99.90;;;;;;4960319;28;20661;-74
2021/07/27 04:00:37;;;;;;;25.43;17.60;;;17.80;99.90;;;;;;4969171;28;20615;-74
2021/07/27 04:03:06;;;;;;;27.57;17.90;;;17.80;99.90;;;;;;4969309;28;20188;-74
2021/07/27 04:05:34;;;;;;;24.93;17.57;;;17.80;99.90;;;;;;4968923;28;20244;-74
2021/07/27 04:08:00;;;;;;;24.00;16.60;;;17.70;99.90;;;;;;4954546;28;20170;-74
2021/07/27 04:10:26;;;;;;;24.30;16.53;;;17.70;99.90;;;;;;4969088;28;20177;-74
2021/07/27 04:12:51;;;;;;;22.17;16.63;;;17.80;99.90;;;;;;4969587;28;20173;-74
2021/07/27 04:15:18;;;;;;;24.63;16.43;;;17.80;99.90;;;;;;4969056;28;20205;-75
2021/07/27 04:17:44;;;;;;;21.67;17.00;;;17.80;99.90;;;;;;4969135;28;20202;-74
2021/07/27 04:20:10;;;;;;;23.47;17.00;;;17.90;99.90;;;;;;4968905;28;20276;-74
2021/07/27 04:22:35;;;;;;;24.20;17.20;;;17.90;99.90;;;;;;4968842;28;20237;-74
2021/07/27 04:25:01;;;;;;;27.40;17.87;;;17.90;99.90;;;;;;4969594;28;20220;-77
2021/07/27 04:27:26;;;;;;;29.37;20.23;;;18.00;99.90;;;;;;4971984;28;20205;-76
2021/07/27 04:29:52;;;;;;;28.00;21.17;;;18.00;99.90;;;;;;4970967;28;20237;-76
2021/07/27 04:32:18;;;;;;;27.93;20.73;;;18.00;99.90;;;;;;4954059;29;20182;-76
2021/07/27 04:34:43;;;;;;;30.17;22.93;;;18.10;99.90;;;;;;4969545;28;20188;-73
2021/07/27 04:37:09;;;;;;;30.70;22.50;;;18.10;99.90;;;;;;4971084;28;20606;-77
2021/07/27 04:39:35;;;;;;;34.57;24.33;;;18.10;99.90;;;;;;4971734;28;20177;-76
2021/07/27 04:42:01;;;;;;;34.23;25.10;;;18.10;99.90;;;;;;4970647;28;20177;-77
2021/07/27 04:44:26;;;;;;;37.10;25.37;;;18.20;99.90;;;;;;4973162;28;20720;-78
2021/07/27 04:46:52;;;;;;;37.73;27.13;;;18.10;99.90;;;;;;4958135;29;20260;-78
2021/07/27 04:49:17;;;;;;;38.33;25.30;;;18.20;99.90;;;;;;4975264;28;20245;-77
2021/07/27 04:51:43;;;;;;;38.20;26.60;;;18.20;99.90;;;;;;4984247;28;20196;-78
2021/07/27 04:54:15;;;;;;;38.07;26.67;;;18.30;99.90;;;;;;4985461;28;20197;-78
2021/07/27 04:56:41;;;;;;;39.03;25.90;;;18.40;99.90;;;;;;4952826;28;20212;-78
2021/07/27 04:59:06;;;;;;;35.20;25.50;;;18.40;99.90;;;;;;4953355;28;20181;-77
2021/07/27 05:01:32;;;;;;;38.33;27.07;;;18.40;99.90;;;;;;4978481;28;20185;-80
2021/07/27 05:03:57;;;;;;;36.13;26.03;;;18.40;99.90;;;;;;4977604;28;20308;-77
2021/07/27 05:06:23;;;;;;;40.13;26.63;;;18.40;99.90;;;;;;4971931;28;20310;-77
2021/07/27 05:08:49;;;;;;;37.87;26.50;;;18.40;99.90;;;;;;4973019;28;20185;-77
2021/07/27 05:11:14;;;;;;;37.57;27.30;;;18.40;99.90;;;;;;4971563;28;20181;-77
2021/07/27 05:13:40;;;;;;;39.97;27.00;;;18.40;99.90;;;;;;4971901;28;20181;-76
2021/07/27 05:16:11;;;;;;;36.97;26.87;;;18.40;99.90;;;;;;4971673;28;20213;-77
2021/07/27 05:18:37;;;;;;;35.93;27.17;;;18.30;99.90;;;;;;4972862;28;20184;-77
2021/07/27 05:21:03;;;;;;;37.17;27.47;;;18.40;99.90;;;;;;4966638;28;20186;-77
2021/07/27 05:23:28;;;;;;;35.90;25.80;;;18.40;99.90;;;;;;4968567;28;20603;-75
2021/07/27 05:25:54;;;;;;;37.00;26.93;;;18.50;99.90;;;;;;4967974;28;20224;-75
2021/07/27 05:28:19;;;;;;;39.43;27.90;;;18.50;99.90;;;;;;4968489;28;20506;-74
2021/07/27 05:30:45;;;;;;;40.53;28.07;;;18.50;99.90;;;;;;4953425;28;20555;-75
2021/07/27 05:33:11;;;;;;;41.10;29.27;;;18.70;99.90;;;;;;4968622;28;20668;-75
2021/07/27 05:35:37;;;;;;;39.37;29.23;;;18.60;99.90;;;;;;4971122;28;20504;-75
2021/07/27 05:38:03;;;;;;;37.43;28.37;;;18.70;99.90;;;;;;4958034;28;20272;-75
2021/07/27 05:40:31;;;;;;;38.93;28.80;;;18.60;99.90;;;;;;4971818;28;20186;-74
2021/07/27 05:42:59;;;;;;;40.67;29.63;;;18.70;99.90;;;;;;4969160;28;20197;-74
2021/07/27 05:45:25;;;;;;;37.87;29.30;;;18.80;99.90;;;;;;4961512;28;20217;-74
2021/07/27 05:47:52;;;;;;;41.80;29.73;;;18.70;99.90;;;;;;4976476;28;20231;-74
2021/07/27 05:50:19;;;;;;;40.97;28.00;;;18.70;99.90;;;;;;4971919;28;20605;-75
2021/07/27 05:52:44;;;;;;;43.43;30.50;;;18.70;99.90;;;;;;4989833;28;20656;-75
2021/07/27 05:55:10;;;;;;;40.60;28.40;;;18.90;99.90;;;;;;4974926;28;20208;-75
2021/07/27 05:57:36;;;;;;;43.70;29.30;;;18.80;99.90;;;;;;4967367;28;20185;-75
2021/07/27 06:00:01;;;;;;;43.77;28.23;;;18.90;99.90;;;;;;4964395;28;20188;-75
2021/07/27 06:02:27;;;;;;;44.93;28.33;;;19.00;99.90;;;;;;4972335;28;20181;-75
2021/07/27 06:04:53;;;;;;;42.13;30.30;;;19.20;99.90;;;;;;4956873;28;20208;-74
2021/07/27 06:07:18;;;;;;;38.20;27.13;;;19.30;99.90;;;;;;4971805;28;20330;-75
2021/07/27 06:09:44;;;;;;;40.47;28.13;;;19.30;99.90;;;;;;4971495;28;20177;-75
2021/07/27 06:12:09;;;;;;;40.23;28.53;;;19.40;99.90;;;;;;4971395;28;20182;-75
2021/07/27 06:14:35;;;;;;;38.73;26.90;;;19.40;99.90;;;;;;4971306;28;20180;-75
2021/07/27 06:17:01;;;;;;;37.10;26.83;;;19.50;99.90;;;;;;4959011;28;20561;-75
2021/07/27 06:19:26;;;;;;;36.93;27.13;;;19.40;99.90;;;;;;4990391;28;20664;-75
2021/07/27 06:21:52;;;;;;;37.13;27.10;;;19.30;99.90;;;;;;4975472;28;20644;-75
2021/07/27 06:24:17;;;;;;;37.27;26.20;;;19.30;99.90;;;;;;4971401;28;20610;-75
2021/07/27 06:26:43;;;;;;;34.03;25.47;;;19.30;99.90;;;;;;4958063;28;20209;-75
2021/07/27 06:29:09;;;;;;;33.93;25.30;;;19.30;99.90;;;;;;4958120;28;20181;-75
2021/07/27 06:31:34;;;;;;;34.73;24.70;;;19.50;99.90;;;;;;4974305;28;20641;-75
2021/07/27 06:34:00;;;;;;;33.47;23.80;;;19.50;99.90;;;;;;4974347;28;20185;-75
2021/07/27 06:36:27;;;;;;;33.40;25.20;;;19.60;99.90;;;;;;4975324;28;20236;-77
2021/07/27 06:38:53;;;;;;;36.23;25.33;;;19.50;99.90;;;;;;4958224;28;20684;-76
2021/07/27 06:41:19;;;;;;;33.73;26.17;;;19.60;99.90;;;;;;4974239;28;20275;-76
2021/07/27 06:43:44;;;;;;;35.83;26.87;;;19.60;99.90;;;;;;4970671;28;20566;-75
2021/07/27 06:46:10;;;;;;;32.33;25.63;;;19.60;99.90;;;;;;4946876;28;20213;-76
2021/07/27 06:48:36;;;;;;;32.60;24.53;;;19.90;99.90;;;;;;4974958;28;20182;-74
2021/07/27 06:51:09;;;;;;;54.77;29.30;;;20.20;99.90;;;;;;4951424;28;20557;-75
2021/07/27 06:53:34;;;;;;;31.27;25.60;;;20.60;99.90;;;;;;4949121;28;20231;-77
2021/07/27 06:56:00;;;;;;;31.30;25.33;;;21.00;99.90;;;;;;4964912;28;20213;-73
2021/07/27 06:58:25;;;;;;;30.63;25.37;;;21.00;99.90;;;;;;4970641;28;20186;-72
2021/07/27 07:00:51;;;;;;;28.00;24.70;;;21.20;99.90;;;;;;4955660;28;20256;-72
2021/07/27 07:03:16;;;;;;;33.37;24.70;;;21.50;99.90;;;;;;4955853;28;20186;-72
2021/07/27 07:05:42;;;;;;;30.00;24.87;;;21.50;99.90;;;;;;4970662;28;20217;-74
2021/07/27 07:08:08;;;;;;;33.57;24.93;;;21.40;99.90;;;;;;4990200;28;20193;-76
2021/07/27 07:10:33;;;;;;;28.90;24.07;;;21.40;99.90;;;;;;4967349;28;20193;-76
2021/07/27 07:12:59;;;;;;;28.67;23.50;;;21.30;99.90;;;;;;4972724;28;20186;-77
2021/07/27 07:15:24;;;;;;;29.50;24.33;;;21.30;99.90;;;;;;4957042;29;20331;-77
2021/07/27 07:17:50;;;;;;;30.47;23.97;;;21.30;99.90;;;;;;4957841;28;20177;-76
2021/07/27 07:20:16;;;;;;;25.50;22.20;;;21.30;99.90;;;;;;4972942;28;20185;-78
2021/07/27 07:22:41;;;;;;;27.20;21.57;;;21.40;99.90;;;;;;4958261;28;20603;-76
2021/07/27 07:25:07;;;;;;;23.33;20.83;;;21.50;99.90;;;;;;4985477;28;20652;-77
2021/07/27 07:27:33;;;;;;;25.40;20.80;;;21.50;99.90;;;;;;4973512;28;20183;-76
2021/07/27 07:29:58;;;;;;;23.40;20.07;;;21.50;99.90;;;;;;4969017;28;20263;-77
2021/07/27 07:32:24;;;;;;;25.10;19.90;;;21.60;99.90;;;;;;4960168;28;20636;-76
2021/07/27 07:34:49;;;;;;;22.83;19.17;;;22.00;99.90;;;;;;4968862;28;20261;-74
2021/07/27 07:37:15;;;;;;;23.57;18.57;;;22.00;99.90;;;;;;4975048;28;20557;-76
2021/07/27 07:39:41;;;;;;;22.50;19.07;;;21.90;99.90;;;;;;4973293;28;20180;-74
2021/07/27 07:42:06;;;;;;;21.47;19.17;;;22.00;99.90;;;;;;4961928;28;20178;-77
2021/07/27 07:44:33;;;;;;;21.40;18.23;;;22.20;99.90;;;;;;4988634;28;20557;-76
2021/07/27 07:46:58;;;;;;;19.90;16.97;;;22.20;99.90;;;;;;4965591;28;20291;-77
2021/07/27 07:49:24;;;;;;;29.70;17.63;;;22.30;99.90;;;;;;4964838;28;20611;-76
2021/07/27 07:51:50;;;;;;;22.47;16.90;;;22.40;99.90;;;;;;5028617;22;20190;-83
2021/07/27 07:54:17;;;;;;;24.43;17.13;;;22.80;99.90;;;;;;5006548;28;20594;-83
2021/07/27 07:56:46;;;;;;;20.97;15.13;;;23.00;99.90;;;;;;4965919;28;20211;-82
2021/07/27 07:59:12;;;;;;;17.17;14.17;;;23.10;99.90;;;;;;4962182;28;20240;-82
2021/07/27 08:01:37;;;;;;;18.20;14.97;;;23.40;99.90;;;;;;5006230;28;20278;-82
2021/07/27 08:04:03;;;;;;;16.38;14.63;;;23.70;99.90;;;;;;4985985;28;20664;-81
2021/07/27 08:06:30;;;;;;;17.40;15.13;;;24.00;99.90;;;;;;5001728;28;20230;-81
2021/07/27 08:08:55;;;;;;;17.47;14.17;;;24.20;99.90;;;;;;4965500;28;20306;-82
2021/07/27 08:11:21;;;;;;;15.07;13.57;;;24.00;99.90;;;;;;4961983;28;20259;-81
2021/07/27 08:13:47;;;;;;;16.90;13.87;;;23.90;99.90;;;;;;4964611;28;20191;-83
2021/07/27 08:16:12;;;;;;;14.73;12.87;;;23.70;99.90;;;;;;4964804;28;20176;-81
2021/07/27 08:18:38;;;;;;;19.40;13.80;;;23.60;99.90;;;;;;4964597;28;20642;-81
2021/07/27 08:21:04;;;;;;;15.83;13.13;;;23.70;99.90;;;;;;4980629;28;20176;-80
2021/07/27 08:23:29;;;;;;;16.92;13.43;;;23.70;99.90;;;;;;4965951;28;20226;-79
2021/07/27 08:25:55;;;;;;;16.90;13.57;;;23.60;99.90;;;;;;4983553;28;20261;-81
2021/07/27 08:28:21;;;;;;;15.30;13.13;;;23.70;99.90;;;;;;4968330;28;20212;-80
2021/07/27 08:30:47;;;;;;;14.77;13.03;;;23.70;99.90;;;;;;4982838;28;20546;-80
2021/07/27 08:33:12;;;;;;;17.00;13.27;;;23.60;99.90;;;;;;4981586;28;20306;-80
2021/07/27 08:35:38;;;;;;;14.67;13.17;;;23.80;99.90;;;;;;4966007;28;20535;-78
2021/07/27 08:38:03;;;;;;;17.13;12.80;;;23.70;99.90;;;;;;4995987;28;20736;-80
2021/07/27 08:40:34;;;;;;;15.20;12.50;;;23.60;99.90;;;;;;4996936;28;20199;-78
2021/07/27 08:43:00;;;;;;;16.77;12.90;;;23.60;99.90;;;;;;4966531;28;20206;-80
2021/07/27 08:45:26;;;;;;;15.20;12.30;;;23.50;99.90;;;;;;4981645;28;20211;-81
2021/07/27 08:47:51;;;;;;;18.30;12.70;;;23.60;99.90;;;;;;4982230;28;20206;-80
2021/07/27 08:50:17;;;;;;;14.23;11.57;;;23.80;99.90;;;;;;4965165;28;20210;-79
2021/07/27 08:52:43;;;;;;;16.00;12.47;;;23.90;99.90;;;;;;4981910;28;20210;-81
2021/07/27 08:55:09;;;;;;;13.70;12.30;;;24.00;99.90;;;;;;4965223;28;20204;-81
2021/07/27 08:57:35;;;;;;;15.27;12.00;;;24.10;99.90;;;;;;4998473;28;20635;-80
2021/07/27 09:00:00;;;;;;;15.38;12.80;;;23.90;99.90;;;;;;4965885;28;20179;-79
2021/07/27 09:02:29;;;;;;;14.73;12.87;;;23.80;99.90;;;;;;4966065;28;20208;-78
2021/07/27 09:05:11;;;;;;;13.73;12.33;;;23.60;99.90;;;;;;4965891;28;20549;-78
2021/07/27 09:07:37;;;;;;;12.80;11.23;;;23.40;99.90;;;;;;4966111;28;20198;-79
2021/07/27 09:10:12;;;;;;;13.80;11.70;;;23.60;99.90;;;;;;4983701;28;20615;-78
2021/07/27 09:12:38;;;;;;;14.77;12.13;;;23.70;99.90;;;;;;4986217;28;20234;-79
2021/07/27 09:15:08;;;;;;;13.93;12.13;;;23.40;99.90;;;;;;4986198;28;20179;-79
2021/07/27 09:17:33;;;;;;;14.17;12.17;;;23.50;99.90;;;;;;5020525;28;20175;-78
2021/07/27 09:19:59;;;;;;;13.07;10.53;;;23.50;99.90;;;;;;4969751;28;20218;-79
2021/07/27 09:22:24;;;;;;;13.40;10.83;;;23.70;99.90;;;;;;4986601;28;20290;-79
2021/07/27 09:24:50;;;;;;;14.07;11.30;;;23.80;99.90;;;;;;5003483;28;20183;-79
2021/07/27 09:27:15;;;;;;;12.40;10.00;;;23.80;99.90;;;;;;4987220;28;20411;-79
2021/07/27 09:29:43;;;;;;;11.83;10.53;;;23.60;99.90;;;;;;4970023;28;20179;-79
2021/07/27 09:32:15;;;;;;;13.10;10.50;;;23.60;99.90;;;;;;4969642;28;20246;-79
2021/07/27 09:34:41;;;;;;;11.50;9.63;;;23.80;99.90;;;;;;4969762;28;20182;-79
2021/07/27 09:37:07;;;;;;;11.90;10.63;;;24.00;99.90;;;;;;5001781;28;20179;-79
2021/07/27 09:39:33;;;;;;;12.38;9.65;;;24.30;99.90;;;;;;4969297;28;20656;-79
2021/07/27 09:42:09;;;;;;;10.65;9.35;;;24.60;99.90;;;;;;5000821;28;20203;-79
2021/07/27 09:44:39;;;;;;;11.65;10.00;;;24.40;99.90;;;;;;5001696;28;20266;-78
2021/07/27 09:47:05;;;;;;;12.18;10.75;;;24.30;99.90;;;;;;4969448;28;20223;-78
2021/07/27 09:49:30;;;;;;;11.07;9.82;;;24.30;99.90;;;;;;4969540;28;20552;-78
2021/07/27 09:51:56;;;;;;;10.55;9.45;;;24.10;99.90;;;;;;5001350;28;20205;-78
2021/07/27 09:54:23;;;;;;;11.20;10.00;;;24.00;99.90;;;;;;5001437;28;20527;-79
2021/07/27 09:56:52;;;;;;;12.67;9.73;;;23.90;99.90;;;;;;4985975;28;20180;-78
2021/07/27 09:59:18;;;;;;;14.20;10.80;;;23.90;99.90;;;;;;5001919;28;20243;-79
2021/07/27 10:01:57;;;;;;;12.63;9.77;;;23.80;99.90;;;;;;4969077;28;20183;-78
2021/07/27 10:04:24;;;;;;;11.27;10.00;;;23.90;99.90;;;;;;4984624;28;20320;-79
2021/07/27 10:06:50;;;;;;;14.87;10.63;;;24.20;99.90;;;;;;4985153;28;20318;-78
2021/07/27 10:09:42;;;;;;;11.73;10.30;;;24.10;99.90;;;;;;4984183;28;20682;-78
2021/07/27 10:12:14;;;;;;;13.53;9.87;;;24.10;99.90;;;;;;4999191;28;20570;-80
2021/07/27 10:14:44;;;;;;;12.37;10.03;;;23.90;99.90;;;;;;4985298;28;20184;-79
2021/07/27 10:17:11;;;;;;;12.38;9.70;;;23.80;99.90;;;;;;4985344;28;20540;-79
2021/07/27 10:19:40;;;;;;;11.83;10.40;;;23.60;99.90;;;;;;4984643;28;20191;-83
2021/07/27 10:22:08;;;;;;;11.70;10.03;;;23.50;99.90;;;;;;4988637;28;20218;-80
2021/07/27 10:24:44;;;;;;;12.73;10.10;;;23.50;99.90;;;;;;4964985;28;20186;-77
2021/07/27 10:27:21;;;;;;;11.50;9.60;;;23.70;99.90;;;;;;4998488;28;20214;-78
2021/07/27 10:29:47;;;;;;;11.07;9.30;;;23.80;99.90;;;;;;4965765;28;20233;-78
2021/07/27 10:32:17;;;;;;;12.57;9.93;;;24.20;99.90;;;;;;4998429;28;20199;-78
2021/07/27 10:34:43;;;;;;;10.48;9.38;;;24.50;99.90;;;;;;5007226;28;20203;-77
2021/07/27 10:37:16;;;;;;;9.93;8.40;;;24.60;99.90;;;;;;5001005;28;20218;-78
2021/07/27 10:39:59;;;;;;;11.53;8.63;;;24.40;99.90;;;;;;4984918;28;20201;-78
2021/07/27 10:42:26;;;;;;;13.20;7.37;;;24.20;99.90;;;;;;5000259;28;20253;-78
2021/07/27 10:44:52;;;;;;;8.52;7.63;;;24.20;99.90;;;;;;5016639;28;20186;-78
2021/07/27 10:47:21;;;;;;;9.80;8.02;;;24.50;99.90;;;;;;4994728;28;20257;-78
2021/07/27 10:49:58;;;;;;;10.63;7.95;;;24.70;99.90;;;;;;4988703;28;20186;-78
2021/07/27 10:52:25;;;;;;;10.55;7.80;;;24.90;99.90;;;;;;4987175;28;20219;-78
2021/07/27 10:54:51;;;;;;;9.37;7.73;;;25.20;99.90;;;;;;4990322;28;20191;-82
2021/07/27 10:57:17;;;;;;;10.10;8.48;;;25.40;99.90;;;;;;4983670;28;20179;-78
2021/07/27 10:59:45;;;;;;;10.05;8.40;;;25.20;99.90;;;;;;4990450;28;20183;-79
2021/07/27 11:02:12;;;;;;;9.43;7.50;;;25.20;99.90;;;;;;4963040;28;20217;-80
2021/07/27 11:04:37;;;;;;;9.23;7.60;;;25.10;99.90;;;;;;4962545;28;20670;-80
2021/07/27 11:07:14;;;;;;;8.38;6.65;;;25.30;99.90;;;;;;4963925;28;20208;-81
2021/07/27 11:09:50;;;;;;;13.00;7.90;;;25.30;99.90;;;;;;4964998;28;20199;-80
2021/07/27 11:12:41;;;;;;;8.43;6.28;;;25.40;99.90;;;;;;4972839;28;20196;-81
2021/07/27 11:15:15;;;;;;;9.38;6.47;;;25.30;99.90;;;;;;4976437;28;20176;-80
2021/07/27 11:17:59;;;;;;;7.88;6.38;;;25.10;99.90;;;;;;4962421;28;20636;-81
2021/07/27 11:20:35;;;;;;;11.25;7.55;;;25.10;99.90;;;;;;4962041;28;20263;-80
2021/07/27 11:23:16;;;;;;;7.82;6.32;;;25.00;99.90;;;;;;4962762;28;20291;-81
2021/07/27 11:25:42;;;;;;;8.88;7.30;;;24.80;99.90;;;;;;4972224;28;20249;-80
2021/07/27 11:28:15;;;;;;;9.82;7.40;;;24.70;99.90;;;;;;4983701;28;20175;-80
2021/07/27 11:30:41;;;;;;;8.93;7.05;;;24.80;99.90;;;;;;5000330;28;20172;-79
2021/07/27 11:33:11;;;;;;;8.48;6.60;;;24.80;99.90;;;;;;4983735;28;20564;-80
2021/07/27 11:35:46;;;;;;;7.13;6.00;;;24.80;99.90;;;;;;4984061;28;20247;-80
2021/07/27 11:38:21;;;;;;;8.15;6.50;;;24.70;99.90;;;;;;4999288;28;20654;-80
2021/07/27 11:40:51;;;;;;;7.90;6.47;;;24.90;99.90;;;;;;4981702;28;20202;-80
2021/07/27 11:43:18;;;;;;;7.28;6.43;;;24.80;99.90;;;;;;4997400;28;20670;-79
2021/07/27 11:45:44;;;;;;;10.93;6.10;;;24.80;99.90;;;;;;5006102;28;20661;-79
2021/07/27 11:48:10;;;;;;;6.75;5.95;;;24.70;99.90;;;;;;4990512;28;20185;-80
2021/07/27 11:50:40;;;;;;;10.93;6.25;;;24.80;99.90;;;;;;4980808;28;20564;-78
2021/07/27 11:53:10;;;;;;;7.57;6.40;;;25.00;99.90;;;;;;4992557;28;20203;-80
2021/07/27 11:55:37;;;;;;;9.50;6.80;;;25.00;99.90;;;;;;5012078;28;20186;-80
2021/07/27 11:58:03;;;;;;;6.97;5.97;;;25.10;99.90;;;;;;4998125;28;20182;-81
2021/07/27 12:00:31;;;;;;;8.20;6.45;;;25.00;99.90;;;;;;5006408;28;20540;-80
2021/07/27 12:02:57;;;;;;;7.15;6.25;;;25.00;99.90;;;;;;4976443;28;20208;-80
2021/07/27 12:05:22;;;;;;;8.30;6.18;;;25.00;99.90;;;;;;4986521;28;20199;-80
2021/07/27 12:07:48;;;;;;;7.78;6.32;;;24.90;99.90;;;;;;4970606;28;20171;-80
2021/07/27 12:10:14;;;;;;;7.88;6.32;;;24.80;99.90;;;;;;4988000;28;20818;-80
2021/07/27 12:12:42;;;;;;;8.63;6.72;;;25.00;99.90;;;;;;4968565;28;20195;-84
2021/07/27 12:15:08;;;;;;;10.18;6.65;;;24.70;99.90;;;;;;4984175;28;20234;-81
2021/07/27 12:17:34;;;;;;;7.82;6.10;;;24.60;99.90;;;;;;4983390;28;20533;-81
2021/07/27 12:20:00;;;;;;;8.25;6.25;;;24.40;99.90;;;;;;4989664;28;20171;-80
2021/07/27 12:22:26;;;;;;;8.50;7.10;;;24.40;99.90;;;;;;4973980;28;20725;-81
2021/07/27 12:24:51;;;;;;;9.80;6.30;;;24.50;99.90;;;;;;4989443;28;20179;-81
2021/07/27 12:27:17;;;;;;;7.30;6.60;;;24.60;99.90;;;;;;4975756;28;20213;-80
2021/07/27 12:29:42;;;;;;;7.90;6.93;;;24.70;99.90;;;;;;4973940;28;20310;-79
2021/07/27 12:32:08;;;;;;;8.20;6.07;;;24.60;99.90;;;;;;4981218;28;20211;-79
2021/07/27 12:34:34;;;;;;;7.10;6.18;;;24.70;99.90;;;;;;4998242;28;20179;-81
2021/07/27 12:36:59;;;;;;;9.27;6.95;;;24.70;99.90;;;;;;4982767;28;20195;-81
2021/07/27 12:39:25;;;;;;;8.35;6.63;;;24.60;99.90;;;;;;4998950;28;20179;-80
2021/07/27 12:41:51;;;;;;;7.80;6.55;;;24.60;99.90;;;;;;4976613;28;20204;-79
2021/07/27 12:44:17;;;;;;;8.35;6.80;;;24.50;99.90;;;;;;4995320;28;20172;-80
2021/07/27 12:46:43;;;;;;;8.82;6.35;;;24.40;99.90;;;;;;4982609;28;20214;-79
2021/07/27 12:49:13;;;;;;;7.10;6.40;;;24.20;99.90;;;;;;4966500;28;20267;-80
2021/07/27 12:51:39;;;;;;;8.85;6.53;;;24.20;99.90;;;;;;4983017;28;20196;-80
2021/07/27 12:54:04;;;;;;;10.18;6.95;;;24.00;99.90;;;;;;4981792;28;20175;-84